Time;durP1;ratioP1;P1;durP2;ratioP2;P2;SDS_P1;SDS_P2;PMS_P1;PMS_P2;Temp;Humidity;BMP_temperature;BMP_pressure;BME280_temperature;BME280_humidity;BME280_pressure;Samples;Min_cycle;Max_cycle;Signal;HPM_P1;HPM_P2
2021/12/17 00:04:37;;;;;;;78.43;35.97;;;9.60;99.90;;;;;;5133455;27;20167;-49
2021/12/17 00:07:10;;;;;;;78.93;37.13;;;9.60;99.90;;;;;;5133340;27;20171;-49
2021/12/17 00:09:37;;;;;;;76.57;34.42;;;9.70;99.90;;;;;;5132788;27;20216;-51
2021/12/17 00:12:04;;;;;;;79.05;34.47;;;9.70;99.90;;;;;;5114563;27;20536;-48
2021/12/17 00:14:36;;;;;;;75.10;35.83;;;9.70;99.90;;;;;;5133202;27;20168;-48
2021/12/17 00:17:05;;;;;;;73.13;35.50;;;9.70;99.90;;;;;;5132944;27;20524;-49
2021/12/17 00:49:32;;;;;;;67.40;32.17;;;9.70;99.90;;;;;;5133204;27;20168;-49
2021/12/17 00:52:02;;;;;;;67.63;34.35;;;9.60;99.90;;;;;;5132936;27;20204;-49
2021/12/17 00:54:39;;;;;;;70.55;32.42;;;9.60;99.90;;;;;;5136890;27;20670;-49
2021/12/17 00:57:26;;;;;;;74.85;33.97;;;9.60;99.90;;;;;;5136498;27;20180;-49
2021/12/17 00:59:54;;;;;;;65.35;31.38;;;9.60;99.90;;;;;;5136562;27;20559;-49
2021/12/17 01:02:29;;;;;;;72.82;33.63;;;9.70;99.90;;;;;;5136447;27;20630;-49
2021/12/17 01:04:57;;;;;;;69.13;34.63;;;9.70;99.90;;;;;;5118449;27;20182;-49
2021/12/17 01:07:28;;;;;;;69.03;33.55;;;9.70;99.90;;;;;;5136271;27;20168;-49
2021/12/17 01:09:54;;;;;;;69.45;32.85;;;9.60;99.90;;;;;;5136292;27;20220;-49
2021/12/17 01:12:22;;;;;;;72.53;33.72;;;9.70;99.90;;;;;;5136289;27;20203;-48
2021/12/17 01:14:47;;;;;;;71.25;32.58;;;9.70;99.90;;;;;;5136242;27;20160;-48
2021/12/17 01:17:15;;;;;;;65.65;32.15;;;9.70;99.90;;;;;;5136235;27;20195;-48
2021/12/17 01:24:58;;;;;;;67.28;31.25;;;9.70;99.90;;;;;;5136316;27;20217;-49
2021/12/17 01:35:42;;;;;;;58.28;28.83;;;9.60;99.90;;;;;;5136198;27;20174;-49
2021/12/17 01:43:35;;;;;;;61.22;31.02;;;9.60;99.90;;;;;;5136331;27;20242;-49
2021/12/17 01:46:02;;;;;;;56.17;28.42;;;9.60;99.90;;;;;;5135946;27;20168;-48
2021/12/17 01:48:36;;;;;;;48.90;28.13;;;9.60;99.90;;;;;;5136135;27;20186;-49
2021/12/17 01:59:26;;;;;;;59.08;28.70;;;9.70;99.90;;;;;;5135719;27;20190;-50
2021/12/17 02:01:59;;;;;;;56.92;28.45;;;9.60;99.90;;;;;;5135547;27;20232;-49
2021/12/17 02:04:25;;;;;;;59.88;29.40;;;9.60;99.90;;;;;;5135212;27;20521;-49
2021/12/17 02:06:50;;;;;;;55.05;26.80;;;9.70;99.90;;;;;;5135195;27;20171;-49
2021/12/17 02:10:08;;;;;;;61.60;30.63;;;9.60;99.90;;;;;;5135055;27;20174;-50
2021/12/17 02:12:37;;;;;;;58.45;28.23;;;9.60;99.90;;;;;;5134897;27;20775;-50
2021/12/17 02:29:03;;;;;;;60.58;30.60;;;9.70;99.90;;;;;;5135073;27;20171;-50
2021/12/17 02:31:31;;;;;;;57.65;27.80;;;9.70;99.90;;;;;;5134892;27;20624;-50
2021/12/17 02:34:08;;;;;;;63.97;29.45;;;9.70;99.90;;;;;;5117470;27;20172;-49
2021/12/17 02:36:35;;;;;;;65.32;31.23;;;9.70;99.90;;;;;;5134852;27;20175;-49
2021/12/17 02:39:26;;;;;;;65.00;31.83;;;9.70;99.90;;;;;;5116189;27;20582;-49
2021/12/17 02:47:17;;;;;;;64.38;31.38;;;9.70;99.90;;;;;;5134486;27;20165;-49
2021/12/17 02:49:45;;;;;;;62.67;31.15;;;9.70;99.90;;;;;;5134311;27;20180;-49
2021/12/17 02:52:13;;;;;;;62.90;29.20;;;9.70;99.90;;;;;;5134336;27;20175;-48
2021/12/17 02:54:39;;;;;;;63.75;30.50;;;9.70;99.90;;;;;;5134330;27;20172;-49
2021/12/17 02:57:06;;;;;;;62.78;29.35;;;9.70;99.90;;;;;;5134215;27;20193;-49
2021/12/17 02:59:34;;;;;;;65.00;31.85;;;9.70;99.90;;;;;;5134331;27;20268;-49
2021/12/17 03:02:02;;;;;;;61.28;31.50;;;9.70;99.90;;;;;;5134101;27;20251;-49
2021/12/17 03:04:29;;;;;;;57.03;29.15;;;9.70;99.90;;;;;;5134450;27;20638;-49
2021/12/17 03:06:56;;;;;;;67.38;30.70;;;9.70;99.90;;;;;;5115875;27;20619;-49
2021/12/17 03:09:36;;;;;;;64.55;30.05;;;9.70;99.90;;;;;;5133865;27;20220;-49
2021/12/17 03:12:05;;;;;;;61.55;29.02;;;9.70;99.90;;;;;;5134100;27;20234;-50
2021/12/17 03:14:31;;;;;;;52.80;26.70;;;9.70;99.90;;;;;;5133513;27;20627;-50
2021/12/17 03:17:07;;;;;;;57.13;28.95;;;9.70;99.90;;;;;;5133971;27;20180;-49
2021/12/17 03:25:00;;;;;;;55.15;27.60;;;9.70;99.90;;;;;;5133974;27;20171;-50
2021/12/17 03:27:26;;;;;;;59.90;28.92;;;9.70;99.90;;;;;;5133996;27;20156;-49
2021/12/17 03:29:51;;;;;;;56.25;28.45;;;9.70;99.90;;;;;;5133598;27;20164;-49
2021/12/17 03:32:17;;;;;;;60.30;26.88;;;9.70;99.90;;;;;;5133567;27;20171;-49
2021/12/17 03:34:43;;;;;;;60.33;28.92;;;9.70;99.90;;;;;;5133604;27;20160;-48
2021/12/17 03:37:08;;;;;;;63.72;30.67;;;9.60;99.90;;;;;;5133505;27;20164;-48
2021/12/17 03:39:37;;;;;;;68.32;31.55;;;9.60;99.90;;;;;;5133607;27;20183;-46
2021/12/17 03:42:06;;;;;;;60.30;28.42;;;9.60;99.90;;;;;;5133394;27;20672;-49
2021/12/17 03:44:32;;;;;;;58.33;29.25;;;9.70;99.90;;;;;;5133376;27;20184;-48
2021/12/17 03:46:58;;;;;;;62.50;29.63;;;9.60;99.90;;;;;;5133876;27;20164;-48
2021/12/17 03:49:23;;;;;;;64.20;29.33;;;9.70;99.90;;;;;;5133304;27;20652;-48
2021/12/17 03:52:04;;;;;;;59.72;28.33;;;9.70;99.90;;;;;;5132986;27;20690;-48
2021/12/17 03:54:34;;;;;;;62.35;31.00;;;9.70;99.90;;;;;;5133211;27;20160;-47
2021/12/17 03:57:01;;;;;;;55.20;28.27;;;9.60;99.90;;;;;;5133148;27;20171;-48
2021/12/17 03:59:26;;;;;;;66.90;30.30;;;9.60;99.90;;;;;;5133679;27;20207;-48
2021/12/17 04:01:52;;;;;;;68.22;30.15;;;9.60;99.90;;;;;;5133281;27;20168;-48
2021/12/17 04:04:18;;;;;;;66.57;28.45;;;9.60;99.90;;;;;;5133189;27;20164;-48
2021/12/17 04:06:43;;;;;;;59.55;29.48;;;9.60;99.90;;;;;;5133067;27;20596;-48
2021/12/17 04:09:09;;;;;;;60.75;29.50;;;9.60;99.90;;;;;;5114511;27;20172;-48
2021/12/17 04:11:35;;;;;;;57.67;28.38;;;9.60;99.90;;;;;;5133204;27;20564;-48
2021/12/17 04:14:01;;;;;;;65.10;31.95;;;9.60;99.90;;;;;;5132944;27;20573;-49
2021/12/17 04:16:30;;;;;;;60.47;29.15;;;9.70;99.90;;;;;;5133536;27;20690;-48
2021/12/17 04:18:57;;;;;;;59.65;30.13;;;9.70;99.90;;;;;;5133515;28;20179;-48
2021/12/17 04:21:24;;;;;;;64.05;30.90;;;9.60;99.90;;;;;;5132801;27;20251;-48
2021/12/17 04:23:52;;;;;;;61.33;29.65;;;9.60;99.90;;;;;;5132916;27;20518;-48
2021/12/17 04:26:18;;;;;;;60.90;29.08;;;9.70;99.90;;;;;;5133614;27;20179;-48
2021/12/17 04:28:48;;;;;;;63.28;29.23;;;9.60;99.90;;;;;;5137117;27;20565;-48
2021/12/17 04:31:15;;;;;;;68.03;29.33;;;9.60;99.90;;;;;;5137277;27;20226;-48
2021/12/17 04:33:43;;;;;;;61.15;30.02;;;9.60;99.90;;;;;;5137332;27;20223;-48
2021/12/17 04:36:15;;;;;;;59.65;30.08;;;9.60;99.90;;;;;;5137240;27;20167;-48
2021/12/17 04:38:41;;;;;;;60.30;29.67;;;9.60;99.90;;;;;;5137153;27;20533;-51
2021/12/17 04:46:39;;;;;;;65.55;31.52;;;9.70;99.90;;;;;;5137104;27;20172;-49
2021/12/17 04:59:51;;;;;;;66.70;31.38;;;9.70;99.90;;;;;;5136773;27;20163;-51
2021/12/17 05:02:18;;;;;;;75.10;32.50;;;9.70;99.90;;;;;;5136761;27;20199;-51
2021/12/17 05:04:44;;;;;;;62.47;29.77;;;9.70;99.90;;;;;;5136474;27;20569;-51
2021/12/17 05:07:12;;;;;;;66.50;29.80;;;9.70;99.90;;;;;;5136588;27;20172;-51
2021/12/17 05:09:48;;;;;;;56.83;29.83;;;9.60;99.90;;;;;;5136347;27;20231;-51
2021/12/17 05:20:31;;;;;;;63.47;29.52;;;9.70;99.90;;;;;;5136449;27;20262;-50
2021/12/17 05:22:59;;;;;;;56.75;28.83;;;9.60;99.90;;;;;;5136623;27;20168;-51
2021/12/17 05:25:26;;;;;;;59.45;30.30;;;9.60;99.90;;;;;;5136218;27;20627;-51
2021/12/17 05:27:55;;;;;;;72.40;32.38;;;9.60;99.90;;;;;;5135623;27;20164;-51
2021/12/17 05:30:21;;;;;;;68.00;29.35;;;9.60;99.90;;;;;;5136116;27;20227;-51
2021/12/17 05:32:47;;;;;;;61.58;30.40;;;9.60;99.90;;;;;;5135924;27;20176;-50
2021/12/17 05:35:12;;;;;;;62.90;29.83;;;9.60;99.90;;;;;;5135981;27;20208;-51
2021/12/17 05:37:38;;;;;;;62.40;29.52;;;9.50;99.90;;;;;;5135476;27;20262;-51
2021/12/17 05:40:04;;;;;;;61.05;28.15;;;9.60;99.90;;;;;;5135469;27;20182;-51
2021/12/17 05:42:29;;;;;;;72.57;30.17;;;9.60;99.90;;;;;;5135612;27;20179;-50
2021/12/17 05:44:56;;;;;;;64.07;29.35;;;9.60;99.90;;;;;;5135670;27;20160;-51
2021/12/17 05:47:21;;;;;;;61.83;30.00;;;9.60;99.90;;;;;;5135893;27;20171;-51
2021/12/17 05:49:47;;;;;;;59.40;28.98;;;9.60;99.90;;;;;;5135494;27;20207;-51
2021/12/17 05:52:13;;;;;;;59.08;27.45;;;9.60;99.90;;;;;;5135881;27;20221;-51
2021/12/17 05:54:39;;;;;;;57.10;27.83;;;9.60;99.90;;;;;;5135742;27;20191;-50
2021/12/17 05:57:04;;;;;;;61.75;28.75;;;9.50;99.90;;;;;;5135404;27;20167;-50
2021/12/17 05:59:34;;;;;;;61.55;30.45;;;9.50;99.90;;;;;;5135495;27;20189;-49
2021/12/17 06:02:01;;;;;;;58.22;29.55;;;9.50;99.90;;;;;;5135592;27;20172;-50
2021/12/17 06:04:27;;;;;;;70.88;30.70;;;9.50;99.90;;;;;;5135550;27;20619;-50
2021/12/17 06:06:52;;;;;;;55.45;28.33;;;9.50;99.90;;;;;;5134605;27;20171;-50
2021/12/17 06:09:18;;;;;;;61.45;29.13;;;9.50;99.90;;;;;;5134555;27;20168;-50
2021/12/17 06:11:43;;;;;;;58.45;29.13;;;9.50;99.90;;;;;;5116548;27;20200;-51
2021/12/17 06:14:09;;;;;;;56.35;28.63;;;9.50;99.90;;;;;;5135060;27;20171;-51
2021/12/17 06:16:35;;;;;;;64.15;29.95;;;9.50;99.90;;;;;;5135037;27;20164;-50
2021/12/17 06:19:01;;;;;;;61.88;28.45;;;9.50;99.90;;;;;;5135008;27;20172;-50
2021/12/17 06:21:27;;;;;;;65.47;30.80;;;9.40;99.90;;;;;;5135519;27;20168;-50
2021/12/17 06:23:52;;;;;;;67.13;32.08;;;9.50;99.90;;;;;;5134758;27;20156;-50
2021/12/17 06:26:18;;;;;;;64.22;30.10;;;9.50;99.90;;;;;;5135004;27;20563;-48
2021/12/17 06:28:45;;;;;;;69.07;31.08;;;9.50;99.90;;;;;;5134774;27;20163;-48
2021/12/17 06:31:10;;;;;;;63.65;31.45;;;9.40;99.90;;;;;;5134600;27;20203;-51
2021/12/17 06:33:36;;;;;;;68.85;31.20;;;9.50;99.90;;;;;;5134646;27;20175;-50
2021/12/17 06:36:01;;;;;;;71.10;33.80;;;9.50;99.90;;;;;;5134614;27;20225;-50
2021/12/17 06:38:27;;;;;;;77.15;33.17;;;9.40;99.90;;;;;;5134941;27;20611;-51
2021/12/17 06:40:53;;;;;;;72.38;32.17;;;9.40;99.90;;;;;;5134498;27;20168;-51
2021/12/17 06:43:22;;;;;;;63.55;30.27;;;9.40;99.90;;;;;;5134480;27;20615;-50
2021/12/17 06:46:01;;;;;;;59.53;30.92;;;9.40;99.90;;;;;;5134408;27;20179;-50
2021/12/17 06:48:29;;;;;;;63.05;31.70;;;9.40;99.90;;;;;;5116284;27;20164;-50
2021/12/17 06:59:10;;;;;;;63.15;31.95;;;9.50;99.90;;;;;;5134553;27;20192;-51
2021/12/17 07:17:47;;;;;;;67.43;33.33;;;9.40;99.90;;;;;;5133962;27;20546;-51
2021/12/17 07:23:08;;;;;;;116.07;49.67;;;9.40;99.90;;;;;;5134125;27;20252;-50
2021/12/17 07:28:08;;;;;;;97.45;45.75;;;9.50;99.90;;;;;;5133747;27;20171;-48
2021/12/17 07:29:24;;;;;;;144.13;66.75;;;9.50;99.90;;;;;;5133482;27;20175;-48
2021/12/17 07:33:43;;;;;;;103.13;45.33;;;9.50;99.90;;;;;;5133812;27;20160;-48
2021/12/17 07:36:12;;;;;;;88.88;39.30;;;9.50;99.90;;;;;;5133831;27;20180;-50
2021/12/17 07:38:40;;;;;;;95.10;39.13;;;9.40;99.90;;;;;;5133550;27;20164;-48
2021/12/17 07:41:07;;;;;;;81.10;37.85;;;9.40;99.90;;;;;;5133634;27;20180;-49
2021/12/17 07:43:40;;;;;;;87.72;37.55;;;9.40;99.90;;;;;;5133628;27;20171;-49
2021/12/17 07:46:12;;;;;;;86.45;37.53;;;9.40;99.90;;;;;;5133413;27;20160;-48
2021/12/17 07:48:39;;;;;;;85.45;37.25;;;9.40;99.90;;;;;;5133510;27;20172;-48
2021/12/17 07:51:07;;;;;;;90.25;36.97;;;9.50;99.90;;;;;;5133248;27;20278;-49
2021/12/17 07:53:34;;;;;;;95.43;37.80;;;9.50;99.90;;;;;;5133187;27;20179;-48
2021/12/17 07:56:01;;;;;;;82.22;37.33;;;9.50;99.90;;;;;;5133489;27;20247;-49
2021/12/17 07:58:31;;;;;;;83.25;36.40;;;9.50;99.90;;;;;;5133467;27;20164;-48
2021/12/17 08:00:57;;;;;;;86.70;36.13;;;9.50;99.90;;;;;;5133278;27;20190;-48
2021/12/17 08:03:23;;;;;;;89.15;38.75;;;9.50;99.90;;;;;;5133168;27;20517;-48
2021/12/17 08:05:50;;;;;;;88.68;38.03;;;9.40;99.90;;;;;;5133042;27;20164;-48
2021/12/17 08:08:15;;;;;;;94.70;39.92;;;9.40;99.90;;;;;;5132882;27;20183;-48
2021/12/17 08:10:41;;;;;;;101.28;39.03;;;9.40;99.90;;;;;;5132798;27;20702;-48
2021/12/17 08:13:14;;;;;;;98.50;39.58;;;9.40;99.90;;;;;;5133199;27;20203;-48
2021/12/17 08:15:47;;;;;;;83.95;35.45;;;9.50;99.90;;;;;;5133290;27;20172;-51
2021/12/17 08:18:31;;;;;;;92.18;38.05;;;9.50;99.90;;;;;;5133021;27;20209;-48
2021/12/17 08:26:22;;;;;;;98.85;38.20;;;9.50;99.90;;;;;;5133166;27;20168;-48
2021/12/17 08:29:23;;;;;;;89.60;36.85;;;9.50;99.90;;;;;;5132842;27;20640;-48
2021/12/17 08:31:41;;;;;;;87.57;36.83;;;9.50;99.90;;;;;;5124015;28;20687;-50
2021/12/17 08:34:07;;;;;;;99.97;36.35;;;9.50;99.90;;;;;;5112151;28;20205;-48
2021/12/17 08:36:33;;;;;;;93.80;34.95;;;9.50;99.90;;;;;;5112257;28;20181;-48
2021/12/17 08:38:58;;;;;;;78.35;34.90;;;9.50;99.90;;;;;;5112415;28;20168;-48
2021/12/17 08:41:26;;;;;;;80.60;34.22;;;9.60;99.90;;;;;;5112521;28;20225;-49
2021/12/17 08:43:51;;;;;;;79.45;32.78;;;9.60;99.90;;;;;;5112431;28;20684;-49
2021/12/17 08:46:17;;;;;;;79.68;34.92;;;9.60;99.90;;;;;;5112181;28;20169;-48
2021/12/17 08:48:42;;;;;;;82.65;32.25;;;9.50;99.90;;;;;;5112233;28;20157;-49
2021/12/17 08:51:09;;;;;;;81.38;34.15;;;9.60;99.90;;;;;;5112077;28;20260;-48
2021/12/17 08:53:36;;;;;;;79.75;33.00;;;9.50;99.90;;;;;;5112390;28;20539;-49
2021/12/17 08:56:03;;;;;;;86.20;31.58;;;9.50;99.90;;;;;;5112077;28;20230;-50
2021/12/17 08:58:29;;;;;;;80.75;31.00;;;9.50;99.90;;;;;;5112482;28;20161;-48
2021/12/17 09:00:55;;;;;;;70.28;29.75;;;9.50;99.90;;;;;;5112422;28;20172;-48
2021/12/17 09:03:20;;;;;;;74.95;29.45;;;9.50;99.90;;;;;;5112276;28;20680;-50
2021/12/17 09:05:47;;;;;;;75.15;30.65;;;9.50;99.90;;;;;;5111989;28;20641;-50
2021/12/17 09:08:13;;;;;;;79.93;31.02;;;9.50;99.90;;;;;;5112178;28;20253;-48
2021/12/17 09:10:40;;;;;;;95.75;29.73;;;9.40;99.90;;;;;;5111684;28;20289;-48
2021/12/17 09:13:07;;;;;;;81.15;28.75;;;9.40;99.90;;;;;;5112491;28;20184;-48
2021/12/17 09:15:33;;;;;;;103.97;29.88;;;9.50;99.90;;;;;;5115629;28;20616;-48
2021/12/17 09:17:58;;;;;;;103.68;29.67;;;9.40;99.90;;;;;;5115941;28;20244;-49
2021/12/17 09:20:24;;;;;;;98.35;31.15;;;9.40;99.90;;;;;;5115521;28;20175;-49
2021/12/17 09:22:51;;;;;;;156.38;33.03;;;9.40;99.90;;;;;;5115507;28;20169;-49
2021/12/17 09:25:16;;;;;;;88.10;30.45;;;9.40;99.90;;;;;;5115527;28;20161;-49
2021/12/17 09:27:42;;;;;;;98.85;33.50;;;9.40;99.90;;;;;;5115438;28;20505;-49
2021/12/17 09:30:11;;;;;;;117.05;31.48;;;9.40;99.90;;;;;;5097000;28;20172;-48
2021/12/17 09:32:39;;;;;;;108.80;31.95;;;9.40;99.90;;;;;;5115580;28;20173;-50
2021/12/17 09:35:05;;;;;;;118.13;32.90;;;9.40;99.90;;;;;;5115704;28;20194;-51
2021/12/17 09:37:31;;;;;;;100.28;30.98;;;9.40;99.90;;;;;;5115145;28;20165;-51
2021/12/17 09:39:57;;;;;;;103.10;28.63;;;9.40;99.90;;;;;;5115523;28;20176;-51
2021/12/17 09:42:23;;;;;;;104.88;30.60;;;9.40;99.90;;;;;;5115147;28;20233;-51
2021/12/17 09:44:48;;;;;;;109.38;28.48;;;9.40;99.90;;;;;;5115114;28;20252;-51
2021/12/17 09:47:14;;;;;;;105.80;30.42;;;9.40;99.90;;;;;;5115412;28;20547;-51
2021/12/17 09:49:39;;;;;;;139.27;30.50;;;9.40;99.90;;;;;;5114995;28;20169;-51
2021/12/17 09:52:05;;;;;;;115.78;29.55;;;9.40;99.90;;;;;;5114824;28;20239;-51
2021/12/17 09:54:31;;;;;;;98.68;28.90;;;9.40;99.90;;;;;;5115018;28;20171;-50
2021/12/17 09:56:56;;;;;;;124.50;30.30;;;9.40;99.90;;;;;;5115247;28;20165;-50
2021/12/17 09:59:22;;;;;;;93.95;31.20;;;9.50;99.90;;;;;;5114718;28;20179;-51
2021/12/17 10:01:48;;;;;;;101.05;29.75;;;9.40;99.90;;;;;;5114829;28;20168;-51
2021/12/17 10:04:19;;;;;;;118.22;30.38;;;9.50;99.90;;;;;;5096463;28;20623;-50
2021/12/17 10:06:46;;;;;;;105.10;30.52;;;9.50;99.90;;;;;;5114821;28;20192;-50
2021/12/17 10:09:12;;;;;;;108.82;29.88;;;9.60;99.90;;;;;;5114204;28;20635;-51
2021/12/17 10:11:37;;;;;;;105.57;31.60;;;9.50;99.90;;;;;;5114581;28;20265;-51
2021/12/17 10:14:35;;;;;;;108.22;32.38;;;9.50;99.90;;;;;;5114159;28;20210;-51
2021/12/17 10:17:12;;;;;;;96.63;27.45;;;9.50;99.90;;;;;;5069619;28;20187;-50
2021/12/17 10:19:47;;;;;;;94.90;29.75;;;9.60;99.90;;;;;;5114477;28;20200;-50
2021/12/17 10:22:16;;;;;;;95.45;32.17;;;9.60;99.90;;;;;;5096083;28;20172;-51
2021/12/17 10:25:02;;;;;;;115.32;32.92;;;9.60;99.90;;;;;;5114503;28;20578;-49
2021/12/17 10:27:30;;;;;;;104.88;32.90;;;10.80;99.90;;;;;;5114414;28;20651;-50
2021/12/17 10:29:57;;;;;;;105.00;32.00;;;9.60;99.90;;;;;;5114628;28;20161;-51
2021/12/17 10:32:25;;;;;;;102.13;32.30;;;9.70;99.90;;;;;;5114195;28;20173;-51
2021/12/17 10:35:02;;;;;;;96.40;30.20;;;9.70;99.90;;;;;;5114176;28;20505;-51
2021/12/17 10:37:41;;;;;;;96.88;30.60;;;9.70;99.90;;;;;;5114385;28;20554;-51
2021/12/17 10:40:21;;;;;;;101.20;31.33;;;9.70;99.90;;;;;;5114013;28;20640;-51
2021/12/17 10:42:59;;;;;;;99.32;32.08;;;9.60;99.90;;;;;;5114338;28;20172;-51
2021/12/17 10:45:28;;;;;;;100.28;31.98;;;9.70;99.90;;;;;;5114369;28;20176;-51
2021/12/17 10:54:17;;;;;;;101.20;33.42;;;9.70;99.90;;;;;;5114082;28;20161;-51
2021/12/17 10:56:48;;;;;;;93.72;30.90;;;9.70;99.90;;;;;;5113699;28;20555;-51
2021/12/17 10:59:18;;;;;;;92.63;30.02;;;9.60;99.90;;;;;;5113638;28;20161;-49
2021/12/17 11:01:59;;;;;;;96.63;31.08;;;9.40;99.90;;;;;;5113948;28;20173;-48
2021/12/17 11:04:26;;;;;;;97.68;31.80;;;9.60;99.90;;;;;;5114394;28;20190;-48
2021/12/17 11:06:59;;;;;;;96.25;31.13;;;9.60;99.90;;;;;;5113421;28;20583;-50
2021/12/17 11:09:30;;;;;;;95.22;31.70;;;9.60;99.90;;;;;;5113344;28;20212;-49
2021/12/17 11:11:57;;;;;;;109.22;33.28;;;9.70;99.90;;;;;;5113398;28;20564;-49
2021/12/17 11:14:23;;;;;;;102.90;32.80;;;9.70;99.90;;;;;;5113291;28;20206;-50
2021/12/17 11:16:49;;;;;;;103.20;30.80;;;9.70;99.90;;;;;;5113380;28;20172;-49
2021/12/17 11:19:15;;;;;;;115.57;32.75;;;9.60;99.90;;;;;;5113329;28;20187;-49
2021/12/17 11:21:40;;;;;;;107.53;31.77;;;9.60;99.90;;;;;;5113237;28;20628;-50
2021/12/17 11:24:07;;;;;;;115.03;33.90;;;9.70;99.90;;;;;;5113322;28;20177;-51
2021/12/17 11:26:33;;;;;;;110.45;30.83;;;9.70;99.90;;;;;;5113054;28;20173;-48
2021/12/17 11:29:03;;;;;;;102.25;31.15;;;9.70;99.90;;;;;;5113572;28;20252;-50
2021/12/17 11:31:30;;;;;;;92.53;32.17;;;9.70;99.90;;;;;;5113300;28;20200;-51
2021/12/17 11:33:57;;;;;;;99.18;30.75;;;9.70;99.90;;;;;;5113469;28;20165;-50
2021/12/17 11:36:23;;;;;;;106.18;32.10;;;9.70;99.90;;;;;;5112309;28;20164;-51
2021/12/17 11:39:02;;;;;;;102.13;31.48;;;9.70;99.90;;;;;;5112836;28;20164;-51
2021/12/17 11:42:05;;;;;;;105.40;31.60;;;9.70;99.90;;;;;;5113013;28;20628;-51
2021/12/17 11:44:40;;;;;;;115.72;32.40;;;9.70;99.90;;;;;;5112741;28;20160;-49
2021/12/17 11:47:10;;;;;;;108.65;32.28;;;9.70;99.90;;;;;;5112499;28;20247;-50
2021/12/17 11:49:52;;;;;;;105.53;29.10;;;9.70;99.90;;;;;;5112763;28;20247;-51
2021/12/17 11:52:42;;;;;;;98.72;31.13;;;9.70;99.90;;;;;;5112590;28;20219;-50
2021/12/17 11:55:20;;;;;;;93.30;27.88;;;9.70;99.90;;;;;;5102666;28;20188;-51
2021/12/17 11:57:46;;;;;;;97.25;30.77;;;9.70;99.90;;;;;;5094063;28;20254;-48
2021/12/17 12:00:18;;;;;;;101.75;32.65;;;9.70;99.90;;;;;;5112406;28;20176;-50
2021/12/17 12:02:48;;;;;;;105.18;30.27;;;9.70;99.90;;;;;;5112470;28;20165;-49
2021/12/17 12:05:33;;;;;;;100.80;30.38;;;9.70;99.90;;;;;;5112526;28;20305;-50
2021/12/17 12:08:24;;;;;;;98.53;31.58;;;9.70;99.90;;;;;;5111826;28;20239;-50
2021/12/17 12:11:09;;;;;;;98.45;29.48;;;9.70;99.90;;;;;;5119970;27;20216;-49
2021/12/17 12:13:47;;;;;;;113.13;29.92;;;9.70;99.90;;;;;;5121668;27;20192;-49
2021/12/17 12:16:18;;;;;;;106.43;28.83;;;9.70;99.90;;;;;;5126501;27;20164;-49
2021/12/17 12:18:51;;;;;;;96.60;31.10;;;9.70;99.90;;;;;;5132564;27;20627;-50
2021/12/17 12:21:22;;;;;;;107.50;34.85;;;9.70;99.90;;;;;;5132777;28;20156;-50
2021/12/17 12:23:57;;;;;;;89.22;30.35;;;9.70;99.90;;;;;;5132606;27;20174;-50
2021/12/17 12:26:36;;;;;;;108.10;32.20;;;9.70;99.90;;;;;;5132682;28;20160;-50
2021/12/17 12:29:09;;;;;;;100.70;31.35;;;9.70;99.90;;;;;;5132791;27;20178;-50
2021/12/17 12:31:37;;;;;;;109.93;33.28;;;9.70;99.90;;;;;;5132544;27;20210;-51
2021/12/17 12:36:56;;;;;;;98.90;31.52;;;9.70;99.90;;;;;;5132954;27;20244;-50
2021/12/17 12:39:46;;;;;;;122.55;35.65;;;9.70;99.90;;;;;;5132329;27;20268;-50
2021/12/17 12:42:31;;;;;;;119.22;35.53;;;9.70;99.90;;;;;;5132577;27;20169;-50
2021/12/17 12:44:57;;;;;;;105.90;34.47;;;9.70;99.90;;;;;;5132836;27;20164;-49
2021/12/17 12:47:26;;;;;;;112.80;33.00;;;9.80;99.90;;;;;;5133240;27;20161;-48
2021/12/17 12:49:53;;;;;;;122.63;37.47;;;9.70;99.90;;;;;;5136645;27;20168;-51
2021/12/17 12:52:33;;;;;;;132.52;37.20;;;9.70;99.90;;;;;;5136129;27;20199;-51
2021/12/17 12:55:22;;;;;;;122.10;37.40;;;9.70;99.90;;;;;;5136369;27;20175;-50
2021/12/17 12:57:52;;;;;;;123.57;39.42;;;9.70;99.90;;;;;;5122829;27;20542;-51
2021/12/17 13:00:27;;;;;;;122.55;38.08;;;9.70;99.90;;;;;;5136297;27;20639;-48
2021/12/17 13:02:55;;;;;;;126.05;42.42;;;9.70;99.90;;;;;;5136293;27;20180;-50
2021/12/17 13:05:23;;;;;;;124.95;40.58;;;9.70;99.90;;;;;;5136519;27;20168;-49
2021/12/17 13:07:53;;;;;;;98.90;37.28;;;9.70;99.90;;;;;;5136159;27;20241;-49
2021/12/17 13:10:25;;;;;;;114.88;38.67;;;9.70;99.90;;;;;;5135932;27;20273;-49
2021/12/17 13:13:18;;;;;;;119.65;41.25;;;9.70;99.90;;;;;;5117405;27;20206;-48
2021/12/17 13:24:16;;;;;;;99.78;37.70;;;9.70;99.90;;;;;;5136485;27;20164;-51
2021/12/17 13:26:45;;;;;;;86.65;34.42;;;9.70;99.90;;;;;;5136021;27;20179;-51
2021/12/17 13:29:18;;;;;;;87.80;34.85;;;9.70;99.90;;;;;;5135664;27;20167;-51
2021/12/17 13:31:49;;;;;;;81.80;33.30;;;9.70;99.90;;;;;;5135603;27;20208;-51
2021/12/17 13:34:36;;;;;;;84.68;34.03;;;9.70;99.90;;;;;;5135613;27;20715;-51
2021/12/17 13:37:19;;;;;;;73.72;32.00;;;9.70;99.90;;;;;;5135841;27;20530;-51
2021/12/17 13:39:53;;;;;;;67.20;29.00;;;9.80;99.90;;;;;;5135494;27;20167;-50
2021/12/17 13:42:28;;;;;;;69.65;28.75;;;9.80;99.90;;;;;;5135233;27;20167;-51
2021/12/17 13:44:56;;;;;;;62.42;27.85;;;9.80;99.90;;;;;;5135478;27;20167;-51
2021/12/17 13:47:28;;;;;;;61.45;26.45;;;9.80;99.90;;;;;;5134852;27;20494;-51
2021/12/17 13:50:14;;;;;;;51.40;25.27;;;9.80;99.90;;;;;;5135279;27;20171;-50
2021/12/17 13:52:53;;;;;;;47.45;22.10;;;9.80;99.90;;;;;;5134924;27;20754;-50
2021/12/17 13:55:26;;;;;;;40.08;21.67;;;9.80;99.90;;;;;;5134553;27;20167;-50
2021/12/17 13:57:52;;;;;;;60.33;24.55;;;9.90;99.90;;;;;;5135003;27;20164;-51
2021/12/17 14:00:21;;;;;;;35.85;20.05;;;9.90;99.90;;;;;;5134043;27;20161;-51
2021/12/17 14:02:49;;;;;;;38.38;19.30;;;9.90;99.90;;;;;;5134687;27;20205;-51
2021/12/17 14:05:20;;;;;;;34.45;19.15;;;9.90;99.90;;;;;;5134432;27;20172;-51
2021/12/17 14:07:49;;;;;;;47.10;20.23;;;10.00;99.90;;;;;;5134426;27;20175;-51
2021/12/17 14:10:20;;;;;;;33.10;18.45;;;10.00;99.90;;;;;;5134224;27;20734;-51
2021/12/17 14:12:47;;;;;;;34.10;16.55;;;9.90;99.90;;;;;;5133984;27;20536;-51
2021/12/17 14:15:17;;;;;;;38.45;17.83;;;9.90;99.90;;;;;;5134573;27;20172;-51
2021/12/17 14:17:46;;;;;;;34.55;17.33;;;9.90;99.90;;;;;;5134346;27;20172;-53
2021/12/17 14:20:18;;;;;;;31.17;17.52;;;9.90;99.90;;;;;;5134303;27;20164;-51
2021/12/17 14:22:45;;;;;;;31.80;17.15;;;9.90;99.90;;;;;;5134265;27;20171;-51
2021/12/17 14:25:31;;;;;;;26.50;16.00;;;9.90;99.90;;;;;;5134363;27;20168;-50
2021/12/17 14:28:00;;;;;;;30.77;16.65;;;9.90;99.90;;;;;;5134138;27;20160;-49
2021/12/17 14:30:34;;;;;;;28.10;15.02;;;9.90;99.90;;;;;;5134706;27;20171;-51
2021/12/17 14:33:07;;;;;;;27.80;14.30;;;9.90;99.90;;;;;;5133987;27;20667;-50
2021/12/17 14:36:00;;;;;;;24.75;14.23;;;9.90;99.90;;;;;;5134211;27;20180;-51
2021/12/17 14:38:41;;;;;;;23.33;13.52;;;9.90;99.90;;;;;;5117752;27;20172;-52
2021/12/17 14:41:15;;;;;;;23.17;13.98;;;9.90;99.90;;;;;;5133992;27;20164;-50
2021/12/17 14:43:48;;;;;;;23.75;13.77;;;9.90;99.90;;;;;;5133949;27;20168;-51
2021/12/17 14:46:29;;;;;;;22.63;12.98;;;9.90;99.90;;;;;;5133651;27;20704;-51
2021/12/17 15:03:43;;;;;;;15.10;9.68;;;9.70;99.90;;;;;;5070134;28;20782;-51
2021/12/17 15:06:15;;;;;;;16.45;10.32;;;9.70;99.90;;;;;;5069987;28;20615;-51
2021/12/17 15:08:41;;;;;;;15.25;9.80;;;9.70;99.90;;;;;;5107349;27;20184;-50
2021/12/17 15:11:23;;;;;;;15.65;10.23;;;9.70;99.90;;;;;;5132269;27;20234;-50
2021/12/17 15:13:49;;;;;;;13.73;9.27;;;9.60;99.90;;;;;;5133611;27;20175;-51
2021/12/17 15:16:14;;;;;;;16.17;10.85;;;9.60;99.90;;;;;;5133074;27;20164;-51
2021/12/17 15:18:42;;;;;;;15.90;10.15;;;9.60;99.90;;;;;;5133100;27;20167;-50
2021/12/17 15:21:08;;;;;;;16.45;10.57;;;9.60;99.90;;;;;;5114698;27;20179;-48
2021/12/17 15:23:35;;;;;;;16.00;10.43;;;9.50;99.90;;;;;;5133309;27;20173;-50
2021/12/17 15:26:00;;;;;;;16.33;10.10;;;9.60;99.90;;;;;;5133953;27;20168;-50
2021/12/17 15:28:27;;;;;;;15.77;10.65;;;9.50;99.90;;;;;;5133962;27;20167;-51
2021/12/17 15:31:05;;;;;;;17.10;10.85;;;9.50;99.90;;;;;;5133731;27;20203;-51
2021/12/17 15:33:31;;;;;;;13.60;9.32;;;9.50;99.90;;;;;;5133722;27;20216;-50
2021/12/17 15:35:57;;;;;;;14.45;9.55;;;9.50;99.90;;;;;;5134025;27;20251;-51
2021/12/17 15:38:23;;;;;;;16.38;9.70;;;9.50;99.90;;;;;;5133495;27;20179;-51
2021/12/17 15:40:50;;;;;;;15.73;10.80;;;9.50;99.90;;;;;;5133560;27;20295;-49
2021/12/17 15:43:17;;;;;;;17.02;11.25;;;9.40;99.90;;;;;;5133455;27;20187;-51
2021/12/17 15:45:45;;;;;;;18.25;10.77;;;9.50;99.90;;;;;;5133321;27;20607;-51
2021/12/17 15:48:13;;;;;;;17.98;10.80;;;9.40;99.90;;;;;;5114914;27;20649;-49